sensor_id;sensor_type;location;lat;lon;timestamp;P1;durP1;ratioP1;P2;durP2;ratioP2
18716;SDS011;9487;50.892;6.906;2022-11-20T00:00:20;20.03;;;16.00;;
18716;SDS011;9487;50.892;6.906;2022-11-20T00:02:47;18.57;;;15.77;;
18716;SDS011;9487;50.892;6.906;2022-11-20T00:05:14;19.67;;;15.80;;
18716;SDS011;9487;50.892;6.906;2022-11-20T00:07:42;18.53;;;16.53;;
18716;SDS011;9487;50.892;6.906;2022-11-20T00:10:09;18.37;;;15.33;;
18716;SDS011;9487;50.892;6.906;2022-11-20T00:12:36;20.23;;;16.80;;
18716;SDS011;9487;50.892;6.906;2022-11-20T00:15:03;18.17;;;16.00;;
18716;SDS011;9487;50.892;6.906;2022-11-20T00:17:30;19.33;;;15.37;;
18716;SDS011;9487;50.892;6.906;2022-11-20T00:19:57;17.37;;;15.47;;
18716;SDS011;9487;50.892;6.906;2022-11-20T00:22:24;18.30;;;15.30;;
18716;SDS011;9487;50.892;6.906;2022-11-20T00:24:52;17.97;;;15.33;;
18716;SDS011;9487;50.892;6.906;2022-11-20T00:27:19;18.40;;;15.43;;
18716;SDS011;9487;50.892;6.906;2022-11-20T00:29:46;16.93;;;14.53;;
18716;SDS011;9487;50.892;6.906;2022-11-20T00:32:13;18.30;;;15.77;;
18716;SDS011;9487;50.892;6.906;2022-11-20T00:34:40;18.50;;;15.47;;
18716;SDS011;9487;50.892;6.906;2022-11-20T00:37:06;18.73;;;16.03;;
18716;SDS011;9487;50.892;6.906;2022-11-20T00:39:33;18.93;;;15.23;;
18716;SDS011;9487;50.892;6.906;2022-11-20T00:42:01;18.37;;;15.33;;
18716;SDS011;9487;50.892;6.906;2022-11-20T00:44:28;18.03;;;15.00;;
18716;SDS011;9487;50.892;6.906;2022-11-20T00:46:55;17.87;;;15.23;;
18716;SDS011;9487;50.892;6.906;2022-11-20T00:49:22;18.23;;;15.40;;
18716;SDS011;9487;50.892;6.906;2022-11-20T00:51:49;18.13;;;15.63;;
18716;SDS011;9487;50.892;6.906;2022-11-20T00:54:15;18.53;;;15.37;;
18716;SDS011;9487;50.892;6.906;2022-11-20T00:56:42;19.30;;;16.07;;
18716;SDS011;9487;50.892;6.906;2022-11-20T00:59:11;17.93;;;15.73;;
18716;SDS011;9487;50.892;6.906;2022-11-20T01:01:37;19.50;;;16.20;;
18716;SDS011;9487;50.892;6.906;2022-11-20T01:04:04;20.60;;;15.93;;
18716;SDS011;9487;50.892;6.906;2022-11-20T01:06:32;18.63;;;15.70;;
18716;SDS011;9487;50.892;6.906;2022-11-20T01:09:01;20.07;;;15.53;;
18716;SDS011;9487;50.892;6.906;2022-11-20T01:11:29;21.70;;;15.77;;
18716;SDS011;9487;50.892;6.906;2022-11-20T01:13:58;18.97;;;15.63;;
18716;SDS011;9487;50.892;6.906;2022-11-20T01:16:28;18.43;;;14.27;;
18716;SDS011;9487;50.892;6.906;2022-11-20T01:18:57;19.43;;;15.30;;
18716;SDS011;9487;50.892;6.906;2022-11-20T01:21:25;17.37;;;14.93;;
18716;SDS011;9487;50.892;6.906;2022-11-20T01:23:53;20.77;;;16.17;;
18716;SDS011;9487;50.892;6.906;2022-11-20T01:26:21;17.63;;;15.43;;
18716;SDS011;9487;50.892;6.906;2022-11-20T01:28:49;17.43;;;15.37;;
18716;SDS011;9487;50.892;6.906;2022-11-20T01:31:17;19.20;;;14.97;;
18716;SDS011;9487;50.892;6.906;2022-11-20T01:33:47;18.87;;;15.40;;
18716;SDS011;9487;50.892;6.906;2022-11-20T01:36:15;20.27;;;15.60;;
18716;SDS011;9487;50.892;6.906;2022-11-20T01:38:43;18.30;;;16.27;;
18716;SDS011;9487;50.892;6.906;2022-11-20T01:41:11;17.13;;;15.23;;
18716;SDS011;9487;50.892;6.906;2022-11-20T01:43:59;16.13;;;14.17;;
18716;SDS011;9487;50.892;6.906;2022-11-20T01:46:26;17.27;;;14.63;;
18716;SDS011;9487;50.892;6.906;2022-11-20T01:48:56;16.77;;;14.97;;
18716;SDS011;9487;50.892;6.906;2022-11-20T01:51:28;17.47;;;14.33;;
18716;SDS011;9487;50.892;6.906;2022-11-20T01:53:59;16.47;;;14.70;;
18716;SDS011;9487;50.892;6.906;2022-11-20T01:56:30;17.40;;;14.27;;
18716;SDS011;9487;50.892;6.906;2022-11-20T01:58:59;16.90;;;15.10;;
18716;SDS011;9487;50.892;6.906;2022-11-20T02:01:30;17.43;;;14.30;;
18716;SDS011;9487;50.892;6.906;2022-11-20T02:03:58;19.70;;;14.67;;
18716;SDS011;9487;50.892;6.906;2022-11-20T02:06:27;21.37;;;15.43;;
18716;SDS011;9487;50.892;6.906;2022-11-20T02:08:57;19.50;;;15.27;;
18716;SDS011;9487;50.892;6.906;2022-11-20T02:11:24;16.80;;;14.27;;
18716;SDS011;9487;50.892;6.906;2022-11-20T02:13:51;18.13;;;14.47;;
18716;SDS011;9487;50.892;6.906;2022-11-20T02:16:20;18.20;;;14.97;;
18716;SDS011;9487;50.892;6.906;2022-11-20T02:18:49;17.90;;;14.97;;
18716;SDS011;9487;50.892;6.906;2022-11-20T02:21:21;17.53;;;15.00;;
18716;SDS011;9487;50.892;6.906;2022-11-20T02:24:03;17.10;;;14.70;;
18716;SDS011;9487;50.892;6.906;2022-11-20T02:26:33;16.60;;;14.27;;
18716;SDS011;9487;50.892;6.906;2022-11-20T02:29:05;16.57;;;14.47;;
18716;SDS011;9487;50.892;6.906;2022-11-20T02:31:36;16.83;;;14.47;;
18716;SDS011;9487;50.892;6.906;2022-11-20T02:34:04;16.77;;;14.60;;
18716;SDS011;9487;50.892;6.906;2022-11-20T02:36:32;16.77;;;14.40;;
18716;SDS011;9487;50.892;6.906;2022-11-20T02:39:02;16.90;;;14.70;;
18716;SDS011;9487;50.892;6.906;2022-11-20T02:41:30;16.87;;;14.83;;
18716;SDS011;9487;50.892;6.906;2022-11-20T02:43:58;16.13;;;13.93;;
18716;SDS011;9487;50.892;6.906;2022-11-20T02:46:25;15.83;;;14.13;;
18716;SDS011;9487;50.892;6.906;2022-11-20T02:48:52;16.40;;;14.23;;
18716;SDS011;9487;50.892;6.906;2022-11-20T02:51:19;15.67;;;13.50;;
18716;SDS011;9487;50.892;6.906;2022-11-20T02:53:46;17.33;;;14.57;;
18716;SDS011;9487;50.892;6.906;2022-11-20T02:56:14;16.10;;;14.00;;
18716;SDS011;9487;50.892;6.906;2022-11-20T02:58:41;17.13;;;14.30;;
18716;SDS011;9487;50.892;6.906;2022-11-20T03:01:08;16.70;;;14.50;;
18716;SDS011;9487;50.892;6.906;2022-11-20T03:03:35;15.80;;;14.03;;
18716;SDS011;9487;50.892;6.906;2022-11-20T03:06:02;16.83;;;13.97;;
18716;SDS011;9487;50.892;6.906;2022-11-20T03:08:29;16.90;;;15.03;;
18716;SDS011;9487;50.892;6.906;2022-11-20T03:10:56;16.47;;;14.60;;
18716;SDS011;9487;50.892;6.906;2022-11-20T03:13:29;17.30;;;14.50;;
18716;SDS011;9487;50.892;6.906;2022-11-20T03:15:56;16.50;;;14.07;;
18716;SDS011;9487;50.892;6.906;2022-11-20T03:18:22;16.47;;;13.60;;
18716;SDS011;9487;50.892;6.906;2022-11-20T03:20:49;15.70;;;13.93;;
18716;SDS011;9487;50.892;6.906;2022-11-20T03:23:16;16.33;;;14.13;;
18716;SDS011;9487;50.892;6.906;2022-11-20T03:25:43;16.37;;;13.93;;
18716;SDS011;9487;50.892;6.906;2022-11-20T03:28:10;18.00;;;14.97;;
18716;SDS011;9487;50.892;6.906;2022-11-20T03:30:38;17.77;;;15.50;;
18716;SDS011;9487;50.892;6.906;2022-11-20T03:33:05;15.80;;;13.77;;
18716;SDS011;9487;50.892;6.906;2022-11-20T03:35:31;17.07;;;14.90;;
18716;SDS011;9487;50.892;6.906;2022-11-20T03:37:58;18.23;;;15.27;;
18716;SDS011;9487;50.892;6.906;2022-11-20T03:40:25;17.30;;;15.40;;
18716;SDS011;9487;50.892;6.906;2022-11-20T03:42:52;16.80;;;14.13;;
18716;SDS011;9487;50.892;6.906;2022-11-20T03:45:19;16.70;;;14.63;;
18716;SDS011;9487;50.892;6.906;2022-11-20T03:47:47;19.40;;;15.53;;
18716;SDS011;9487;50.892;6.906;2022-11-20T03:50:14;19.97;;;16.03;;
18716;SDS011;9487;50.892;6.906;2022-11-20T03:52:41;19.70;;;15.87;;
18716;SDS011;9487;50.892;6.906;2022-11-20T03:55:08;18.90;;;16.03;;
18716;SDS011;9487;50.892;6.906;2022-11-20T03:57:35;17.70;;;15.40;;
18716;SDS011;9487;50.892;6.906;2022-11-20T04:00:03;21.13;;;17.00;;
18716;SDS011;9487;50.892;6.906;2022-11-20T04:02:30;21.20;;;17.53;;
18716;SDS011;9487;50.892;6.906;2022-11-20T04:04:58;19.17;;;16.43;;
18716;SDS011;9487;50.892;6.906;2022-11-20T04:07:25;22.23;;;17.30;;
18716;SDS011;9487;50.892;6.906;2022-11-20T04:09:52;21.50;;;17.03;;
18716;SDS011;9487;50.892;6.906;2022-11-20T04:12:19;22.07;;;18.43;;
18716;SDS011;9487;50.892;6.906;2022-11-20T04:14:46;22.23;;;17.83;;
18716;SDS011;9487;50.892;6.906;2022-11-20T04:17:12;21.97;;;17.40;;
18716;SDS011;9487;50.892;6.906;2022-11-20T04:19:39;25.07;;;18.70;;
18716;SDS011;9487;50.892;6.906;2022-11-20T04:22:08;25.70;;;19.27;;
18716;SDS011;9487;50.892;6.906;2022-11-20T04:24:36;24.23;;;18.50;;
18716;SDS011;9487;50.892;6.906;2022-11-20T04:27:03;22.93;;;18.70;;
18716;SDS011;9487;50.892;6.906;2022-11-20T04:29:30;21.93;;;17.50;;
18716;SDS011;9487;50.892;6.906;2022-11-20T04:31:57;25.03;;;19.07;;
18716;SDS011;9487;50.892;6.906;2022-11-20T04:34:23;24.10;;;18.57;;
18716;SDS011;9487;50.892;6.906;2022-11-20T04:36:50;23.97;;;19.23;;
18716;SDS011;9487;50.892;6.906;2022-11-20T04:39:18;24.07;;;18.57;;
18716;SDS011;9487;50.892;6.906;2022-11-20T04:41:45;23.40;;;18.77;;
18716;SDS011;9487;50.892;6.906;2022-11-20T04:44:12;23.60;;;18.97;;
18716;SDS011;9487;50.892;6.906;2022-11-20T04:46:40;24.07;;;18.70;;
18716;SDS011;9487;50.892;6.906;2022-11-20T04:49:08;21.43;;;18.00;;
18716;SDS011;9487;50.892;6.906;2022-11-20T04:51:36;22.30;;;17.90;;
18716;SDS011;9487;50.892;6.906;2022-11-20T04:54:03;23.50;;;17.50;;
18716;SDS011;9487;50.892;6.906;2022-11-20T04:56:31;24.27;;;18.17;;
18716;SDS011;9487;50.892;6.906;2022-11-20T04:58:59;24.67;;;18.67;;
18716;SDS011;9487;50.892;6.906;2022-11-20T05:01:27;24.23;;;17.90;;
18716;SDS011;9487;50.892;6.906;2022-11-20T05:03:54;22.43;;;17.73;;
18716;SDS011;9487;50.892;6.906;2022-11-20T05:06:21;25.03;;;18.10;;
18716;SDS011;9487;50.892;6.906;2022-11-20T05:08:48;23.77;;;18.37;;
18716;SDS011;9487;50.892;6.906;2022-11-20T05:11:16;25.20;;;18.70;;
18716;SDS011;9487;50.892;6.906;2022-11-20T05:13:46;25.20;;;19.87;;
18716;SDS011;9487;50.892;6.906;2022-11-20T05:16:14;26.90;;;19.37;;
18716;SDS011;9487;50.892;6.906;2022-11-20T05:18:42;27.23;;;20.33;;
18716;SDS011;9487;50.892;6.906;2022-11-20T05:21:09;28.27;;;20.27;;
18716;SDS011;9487;50.892;6.906;2022-11-20T05:23:37;30.23;;;21.30;;
18716;SDS011;9487;50.892;6.906;2022-11-20T05:26:05;27.80;;;19.90;;
18716;SDS011;9487;50.892;6.906;2022-11-20T05:28:33;27.33;;;19.83;;
18716;SDS011;9487;50.892;6.906;2022-11-20T05:31:05;27.00;;;18.37;;
18716;SDS011;9487;50.892;6.906;2022-11-20T05:33:33;25.23;;;19.00;;
18716;SDS011;9487;50.892;6.906;2022-11-20T05:36:01;28.50;;;20.93;;
18716;SDS011;9487;50.892;6.906;2022-11-20T05:38:28;29.53;;;20.33;;
18716;SDS011;9487;50.892;6.906;2022-11-20T05:40:55;32.20;;;19.87;;
18716;SDS011;9487;50.892;6.906;2022-11-20T05:43:30;27.10;;;20.27;;
18716;SDS011;9487;50.892;6.906;2022-11-20T05:45:58;29.27;;;19.93;;
18716;SDS011;9487;50.892;6.906;2022-11-20T05:48:26;30.47;;;21.47;;
18716;SDS011;9487;50.892;6.906;2022-11-20T05:50:53;28.30;;;18.90;;
18716;SDS011;9487;50.892;6.906;2022-11-20T05:53:20;29.50;;;20.53;;
18716;SDS011;9487;50.892;6.906;2022-11-20T05:55:46;30.73;;;21.60;;
18716;SDS011;9487;50.892;6.906;2022-11-20T05:58:22;27.07;;;19.90;;
18716;SDS011;9487;50.892;6.906;2022-11-20T06:00:49;28.53;;;20.77;;
18716;SDS011;9487;50.892;6.906;2022-11-20T06:03:16;27.10;;;19.57;;
18716;SDS011;9487;50.892;6.906;2022-11-20T06:05:44;27.27;;;20.50;;
18716;SDS011;9487;50.892;6.906;2022-11-20T06:08:11;28.83;;;20.33;;
18716;SDS011;9487;50.892;6.906;2022-11-20T06:10:38;26.63;;;19.90;;
18716;SDS011;9487;50.892;6.906;2022-11-20T06:13:05;25.63;;;19.43;;
18716;SDS011;9487;50.892;6.906;2022-11-20T06:15:31;27.17;;;19.20;;
18716;SDS011;9487;50.892;6.906;2022-11-20T06:17:58;26.37;;;19.20;;
18716;SDS011;9487;50.892;6.906;2022-11-20T06:20:25;22.77;;;18.20;;
18716;SDS011;9487;50.892;6.906;2022-11-20T06:22:53;26.00;;;19.97;;
18716;SDS011;9487;50.892;6.906;2022-11-20T06:25:20;24.73;;;19.27;;
18716;SDS011;9487;50.892;6.906;2022-11-20T06:27:47;26.57;;;19.67;;
18716;SDS011;9487;50.892;6.906;2022-11-20T06:30:14;24.90;;;18.60;;
18716;SDS011;9487;50.892;6.906;2022-11-20T06:32:41;24.53;;;19.30;;
18716;SDS011;9487;50.892;6.906;2022-11-20T06:35:08;24.00;;;18.17;;
18716;SDS011;9487;50.892;6.906;2022-11-20T06:37:35;24.90;;;18.43;;
18716;SDS011;9487;50.892;6.906;2022-11-20T06:40:04;23.07;;;18.57;;
18716;SDS011;9487;50.892;6.906;2022-11-20T06:42:32;24.97;;;18.67;;
18716;SDS011;9487;50.892;6.906;2022-11-20T06:44:59;24.20;;;18.57;;
18716;SDS011;9487;50.892;6.906;2022-11-20T06:47:25;23.83;;;18.80;;
18716;SDS011;9487;50.892;6.906;2022-11-20T06:49:52;27.10;;;21.23;;
18716;SDS011;9487;50.892;6.906;2022-11-20T06:52:19;27.20;;;21.17;;
18716;SDS011;9487;50.892;6.906;2022-11-20T06:54:46;25.53;;;20.67;;
18716;SDS011;9487;50.892;6.906;2022-11-20T06:57:14;25.53;;;20.47;;
18716;SDS011;9487;50.892;6.906;2022-11-20T06:59:41;26.07;;;20.17;;
18716;SDS011;9487;50.892;6.906;2022-11-20T07:02:09;24.03;;;18.73;;
18716;SDS011;9487;50.892;6.906;2022-11-20T07:04:36;25.27;;;20.00;;
18716;SDS011;9487;50.892;6.906;2022-11-20T07:07:03;26.90;;;20.27;;
18716;SDS011;9487;50.892;6.906;2022-11-20T07:09:31;23.60;;;18.57;;
18716;SDS011;9487;50.892;6.906;2022-11-20T07:11:58;25.03;;;19.47;;
18716;SDS011;9487;50.892;6.906;2022-11-20T07:14:26;22.37;;;18.93;;
18716;SDS011;9487;50.892;6.906;2022-11-20T07:16:53;27.07;;;20.07;;
18716;SDS011;9487;50.892;6.906;2022-11-20T07:19:20;23.60;;;19.30;;
18716;SDS011;9487;50.892;6.906;2022-11-20T07:21:47;23.53;;;18.80;;
18716;SDS011;9487;50.892;6.906;2022-11-20T07:24:14;26.23;;;20.13;;
18716;SDS011;9487;50.892;6.906;2022-11-20T07:26:41;23.77;;;18.30;;
18716;SDS011;9487;50.892;6.906;2022-11-20T07:29:08;23.67;;;19.53;;
18716;SDS011;9487;50.892;6.906;2022-11-20T07:31:36;23.80;;;19.83;;
18716;SDS011;9487;50.892;6.906;2022-11-20T07:34:03;24.60;;;18.93;;
18716;SDS011;9487;50.892;6.906;2022-11-20T07:36:30;23.60;;;18.87;;
18716;SDS011;9487;50.892;6.906;2022-11-20T07:38:56;23.00;;;18.97;;
18716;SDS011;9487;50.892;6.906;2022-11-20T07:41:23;23.07;;;17.67;;
18716;SDS011;9487;50.892;6.906;2022-11-20T07:43:51;24.60;;;20.13;;
18716;SDS011;9487;50.892;6.906;2022-11-20T07:46:17;25.33;;;19.73;;
18716;SDS011;9487;50.892;6.906;2022-11-20T07:48:45;26.10;;;20.03;;
18716;SDS011;9487;50.892;6.906;2022-11-20T07:51:12;23.40;;;18.30;;
18716;SDS011;9487;50.892;6.906;2022-11-20T07:53:39;23.70;;;19.77;;
18716;SDS011;9487;50.892;6.906;2022-11-20T07:56:06;24.10;;;19.10;;
18716;SDS011;9487;50.892;6.906;2022-11-20T07:58:33;24.57;;;19.77;;
18716;SDS011;9487;50.892;6.906;2022-11-20T08:01:02;24.47;;;19.90;;
18716;SDS011;9487;50.892;6.906;2022-11-20T08:03:29;24.67;;;19.73;;
18716;SDS011;9487;50.892;6.906;2022-11-20T08:05:59;23.63;;;19.37;;
18716;SDS011;9487;50.892;6.906;2022-11-20T08:08:27;22.97;;;18.97;;
18716;SDS011;9487;50.892;6.906;2022-11-20T08:10:56;25.63;;;20.30;;
18716;SDS011;9487;50.892;6.906;2022-11-20T08:13:43;25.10;;;19.43;;
18716;SDS011;9487;50.892;6.906;2022-11-20T08:16:27;28.10;;;21.40;;
18716;SDS011;9487;50.892;6.906;2022-11-20T08:18:54;25.23;;;20.10;;
18716;SDS011;9487;50.892;6.906;2022-11-20T08:21:22;27.60;;;20.70;;
18716;SDS011;9487;50.892;6.906;2022-11-20T08:23:49;25.33;;;20.23;;
18716;SDS011;9487;50.892;6.906;2022-11-20T08:26:16;26.17;;;20.60;;
18716;SDS011;9487;50.892;6.906;2022-11-20T08:28:43;25.87;;;20.07;;
18716;SDS011;9487;50.892;6.906;2022-11-20T08:31:10;25.47;;;20.10;;
18716;SDS011;9487;50.892;6.906;2022-11-20T08:33:37;25.70;;;19.80;;
18716;SDS011;9487;50.892;6.906;2022-11-20T08:36:04;26.20;;;20.23;;
18716;SDS011;9487;50.892;6.906;2022-11-20T08:38:33;25.27;;;19.67;;
18716;SDS011;9487;50.892;6.906;2022-11-20T08:41:01;26.70;;;21.17;;
18716;SDS011;9487;50.892;6.906;2022-11-20T08:43:46;26.83;;;20.63;;
18716;SDS011;9487;50.892;6.906;2022-11-20T08:46:13;27.17;;;20.53;;
18716;SDS011;9487;50.892;6.906;2022-11-20T08:48:40;27.93;;;20.83;;
18716;SDS011;9487;50.892;6.906;2022-11-20T08:51:08;27.17;;;20.97;;
18716;SDS011;9487;50.892;6.906;2022-11-20T08:53:36;27.47;;;20.43;;
18716;SDS011;9487;50.892;6.906;2022-11-20T08:56:03;26.23;;;20.73;;
18716;SDS011;9487;50.892;6.906;2022-11-20T08:58:31;26.40;;;20.67;;
18716;SDS011;9487;50.892;6.906;2022-11-20T09:00:58;26.30;;;20.13;;
18716;SDS011;9487;50.892;6.906;2022-11-20T09:03:25;24.77;;;19.60;;
18716;SDS011;9487;50.892;6.906;2022-11-20T09:05:56;24.53;;;19.70;;
18716;SDS011;9487;50.892;6.906;2022-11-20T09:08:24;24.77;;;20.50;;
18716;SDS011;9487;50.892;6.906;2022-11-20T09:10:52;26.13;;;19.13;;
18716;SDS011;9487;50.892;6.906;2022-11-20T09:13:20;26.10;;;19.80;;
18716;SDS011;9487;50.892;6.906;2022-11-20T09:15:48;25.40;;;20.03;;
18716;SDS011;9487;50.892;6.906;2022-11-20T09:18:19;25.00;;;20.40;;
18716;SDS011;9487;50.892;6.906;2022-11-20T09:20:46;25.90;;;20.17;;
18716;SDS011;9487;50.892;6.906;2022-11-20T09:23:13;25.17;;;19.40;;
18716;SDS011;9487;50.892;6.906;2022-11-20T09:25:39;26.30;;;20.30;;
18716;SDS011;9487;50.892;6.906;2022-11-20T09:28:08;26.40;;;20.63;;
18716;SDS011;9487;50.892;6.906;2022-11-20T09:30:35;29.27;;;22.20;;
18716;SDS011;9487;50.892;6.906;2022-11-20T09:33:03;24.77;;;19.93;;
18716;SDS011;9487;50.892;6.906;2022-11-20T09:35:30;24.90;;;19.43;;
18716;SDS011;9487;50.892;6.906;2022-11-20T09:37:57;26.90;;;19.70;;
18716;SDS011;9487;50.892;6.906;2022-11-20T09:40:25;24.33;;;18.90;;
18716;SDS011;9487;50.892;6.906;2022-11-20T09:42:55;27.20;;;18.97;;
18716;SDS011;9487;50.892;6.906;2022-11-20T09:45:37;26.80;;;20.77;;
18716;SDS011;9487;50.892;6.906;2022-11-20T09:48:14;25.57;;;19.47;;
18716;SDS011;9487;50.892;6.906;2022-11-20T09:50:49;24.37;;;19.20;;
18716;SDS011;9487;50.892;6.906;2022-11-20T09:53:25;25.17;;;20.03;;
18716;SDS011;9487;50.892;6.906;2022-11-20T09:56:00;25.70;;;19.97;;
18716;SDS011;9487;50.892;6.906;2022-11-20T09:58:29;25.20;;;20.10;;
18716;SDS011;9487;50.892;6.906;2022-11-20T10:01:03;25.20;;;18.77;;
18716;SDS011;9487;50.892;6.906;2022-11-20T10:03:37;27.27;;;20.73;;
18716;SDS011;9487;50.892;6.906;2022-11-20T10:06:12;28.17;;;24.10;;
18716;SDS011;9487;50.892;6.906;2022-11-20T10:08:44;27.60;;;21.43;;
18716;SDS011;9487;50.892;6.906;2022-11-20T10:11:15;26.93;;;20.87;;
18716;SDS011;9487;50.892;6.906;2022-11-20T10:13:51;27.43;;;21.13;;
18716;SDS011;9487;50.892;6.906;2022-11-20T10:16:30;28.93;;;22.10;;
18716;SDS011;9487;50.892;6.906;2022-11-20T10:19:11;25.67;;;19.73;;
18716;SDS011;9487;50.892;6.906;2022-11-20T10:21:53;28.97;;;21.03;;
18716;SDS011;9487;50.892;6.906;2022-11-20T10:24:36;26.03;;;20.30;;
18716;SDS011;9487;50.892;6.906;2022-11-20T10:27:21;26.67;;;20.40;;
18716;SDS011;9487;50.892;6.906;2022-11-20T10:30:03;27.83;;;20.83;;
18716;SDS011;9487;50.892;6.906;2022-11-20T10:32:37;25.17;;;19.63;;
18716;SDS011;9487;50.892;6.906;2022-11-20T10:35:07;28.67;;;20.80;;
18716;SDS011;9487;50.892;6.906;2022-11-20T10:37:44;28.47;;;21.60;;
18716;SDS011;9487;50.892;6.906;2022-11-20T10:40:22;27.53;;;20.70;;
18716;SDS011;9487;50.892;6.906;2022-11-20T10:42:55;26.53;;;20.47;;
18716;SDS011;9487;50.892;6.906;2022-11-20T10:45:34;24.10;;;19.57;;
18716;SDS011;9487;50.892;6.906;2022-11-20T10:48:14;24.77;;;18.83;;
18716;SDS011;9487;50.892;6.906;2022-11-20T10:53:46;25.37;;;19.07;;
18716;SDS011;9487;50.892;6.906;2022-11-20T10:56:22;24.70;;;19.63;;
18716;SDS011;9487;50.892;6.906;2022-11-20T10:59:02;22.93;;;18.57;;
18716;SDS011;9487;50.892;6.906;2022-11-20T11:01:45;24.93;;;18.10;;
18716;SDS011;9487;50.892;6.906;2022-11-20T11:04:18;22.83;;;17.93;;
18716;SDS011;9487;50.892;6.906;2022-11-20T11:06:57;23.23;;;18.30;;
18716;SDS011;9487;50.892;6.906;2022-11-20T11:09:33;25.43;;;19.77;;
18716;SDS011;9487;50.892;6.906;2022-11-20T11:12:06;23.80;;;19.23;;
18716;SDS011;9487;50.892;6.906;2022-11-20T11:14:41;26.90;;;20.07;;
18716;SDS011;9487;50.892;6.906;2022-11-20T11:17:18;24.30;;;19.37;;
18716;SDS011;9487;50.892;6.906;2022-11-20T11:19:57;25.03;;;19.00;;
18716;SDS011;9487;50.892;6.906;2022-11-20T11:22:25;24.37;;;19.30;;
18716;SDS011;9487;50.892;6.906;2022-11-20T11:24:55;25.83;;;19.37;;
18716;SDS011;9487;50.892;6.906;2022-11-20T11:27:22;24.17;;;19.23;;
18716;SDS011;9487;50.892;6.906;2022-11-20T11:29:48;25.27;;;20.60;;
18716;SDS011;9487;50.892;6.906;2022-11-20T11:32:17;24.83;;;19.67;;
18716;SDS011;9487;50.892;6.906;2022-11-20T11:34:59;26.53;;;21.03;;
18716;SDS011;9487;50.892;6.906;2022-11-20T11:37:26;24.03;;;19.20;;
18716;SDS011;9487;50.892;6.906;2022-11-20T11:39:58;24.50;;;19.23;;
18716;SDS011;9487;50.892;6.906;2022-11-20T11:42:25;22.93;;;18.87;;
18716;SDS011;9487;50.892;6.906;2022-11-20T11:44:53;25.77;;;19.77;;
18716;SDS011;9487;50.892;6.906;2022-11-20T11:47:32;24.00;;;19.97;;
18716;SDS011;9487;50.892;6.906;2022-11-20T11:50:07;24.60;;;19.90;;
18716;SDS011;9487;50.892;6.906;2022-11-20T11:52:42;25.03;;;19.57;;
18716;SDS011;9487;50.892;6.906;2022-11-20T11:55:14;25.47;;;19.13;;
18716;SDS011;9487;50.892;6.906;2022-11-20T11:57:52;26.10;;;20.53;;
18716;SDS011;9487;50.892;6.906;2022-11-20T12:00:25;24.70;;;20.03;;
18716;SDS011;9487;50.892;6.906;2022-11-20T12:02:54;26.40;;;19.50;;
18716;SDS011;9487;50.892;6.906;2022-11-20T12:05:28;23.73;;;19.03;;
18716;SDS011;9487;50.892;6.906;2022-11-20T12:08:02;24.57;;;19.60;;
18716;SDS011;9487;50.892;6.906;2022-11-20T12:10:36;24.30;;;19.73;;
18716;SDS011;9487;50.892;6.906;2022-11-20T12:13:13;22.87;;;18.17;;
18716;SDS011;9487;50.892;6.906;2022-11-20T12:15:47;22.13;;;18.37;;
18716;SDS011;9487;50.892;6.906;2022-11-20T12:18:15;24.10;;;19.47;;
18716;SDS011;9487;50.892;6.906;2022-11-20T12:20:48;23.67;;;18.10;;
18716;SDS011;9487;50.892;6.906;2022-11-20T12:23:26;25.40;;;18.97;;
18716;SDS011;9487;50.892;6.906;2022-11-20T12:26:00;25.93;;;19.87;;
18716;SDS011;9487;50.892;6.906;2022-11-20T12:28:34;27.57;;;20.40;;
18716;SDS011;9487;50.892;6.906;2022-11-20T12:31:21;24.57;;;18.30;;
18716;SDS011;9487;50.892;6.906;2022-11-20T12:34:12;21.83;;;18.00;;
18716;SDS011;9487;50.892;6.906;2022-11-20T12:36:51;24.27;;;18.97;;
18716;SDS011;9487;50.892;6.906;2022-11-20T12:39:26;23.17;;;18.67;;
18716;SDS011;9487;50.892;6.906;2022-11-20T12:42:16;24.73;;;20.67;;
18716;SDS011;9487;50.892;6.906;2022-11-20T12:45:14;23.03;;;19.33;;
18716;SDS011;9487;50.892;6.906;2022-11-20T12:51:01;24.23;;;18.63;;
18716;SDS011;9487;50.892;6.906;2022-11-20T12:53:46;24.50;;;19.33;;
18716;SDS011;9487;50.892;6.906;2022-11-20T12:56:26;24.27;;;17.97;;
18716;SDS011;9487;50.892;6.906;2022-11-20T12:59:06;25.10;;;19.33;;
18716;SDS011;9487;50.892;6.906;2022-11-20T13:01:47;24.87;;;19.37;;
18716;SDS011;9487;50.892;6.906;2022-11-20T13:04:22;23.57;;;18.33;;
18716;SDS011;9487;50.892;6.906;2022-11-20T13:07:13;22.33;;;17.80;;
18716;SDS011;9487;50.892;6.906;2022-11-20T13:09:44;22.67;;;18.80;;
18716;SDS011;9487;50.892;6.906;2022-11-20T13:12:13;24.40;;;18.97;;
18716;SDS011;9487;50.892;6.906;2022-11-20T13:14:45;24.80;;;18.80;;
18716;SDS011;9487;50.892;6.906;2022-11-20T13:17:19;22.70;;;18.10;;
18716;SDS011;9487;50.892;6.906;2022-11-20T13:19:52;22.50;;;18.13;;
18716;SDS011;9487;50.892;6.906;2022-11-20T13:22:26;23.13;;;17.97;;
18716;SDS011;9487;50.892;6.906;2022-11-20T13:24:55;24.83;;;19.10;;
18716;SDS011;9487;50.892;6.906;2022-11-20T13:27:23;23.90;;;18.80;;
18716;SDS011;9487;50.892;6.906;2022-11-20T13:30:00;23.57;;;18.93;;
18716;SDS011;9487;50.892;6.906;2022-11-20T13:32:47;22.27;;;16.80;;
18716;SDS011;9487;50.892;6.906;2022-11-20T13:35:23;23.27;;;18.20;;
18716;SDS011;9487;50.892;6.906;2022-11-20T13:37:59;23.23;;;18.30;;
18716;SDS011;9487;50.892;6.906;2022-11-20T13:40:28;25.90;;;19.23;;
18716;SDS011;9487;50.892;6.906;2022-11-20T13:42:56;23.50;;;18.83;;
18716;SDS011;9487;50.892;6.906;2022-11-20T13:45:30;23.57;;;18.67;;
18716;SDS011;9487;50.892;6.906;2022-11-20T13:47:59;24.30;;;18.53;;
18716;SDS011;9487;50.892;6.906;2022-11-20T13:50:40;25.47;;;18.83;;
18716;SDS011;9487;50.892;6.906;2022-11-20T13:53:21;25.10;;;19.40;;
18716;SDS011;9487;50.892;6.906;2022-11-20T13:55:59;22.63;;;18.33;;
18716;SDS011;9487;50.892;6.906;2022-11-20T13:58:36;23.47;;;18.87;;
18716;SDS011;9487;50.892;6.906;2022-11-20T14:01:14;24.10;;;19.57;;
18716;SDS011;9487;50.892;6.906;2022-11-20T14:03:43;23.83;;;19.07;;
18716;SDS011;9487;50.892;6.906;2022-11-20T14:06:12;25.80;;;20.30;;
18716;SDS011;9487;50.892;6.906;2022-11-20T14:08:42;22.33;;;17.83;;
18716;SDS011;9487;50.892;6.906;2022-11-20T14:11:14;24.67;;;18.80;;
18716;SDS011;9487;50.892;6.906;2022-11-20T14:13:51;24.60;;;18.23;;
18716;SDS011;9487;50.892;6.906;2022-11-20T14:16:23;22.97;;;18.03;;
18716;SDS011;9487;50.892;6.906;2022-11-20T14:18:51;25.63;;;19.77;;
18716;SDS011;9487;50.892;6.906;2022-11-20T14:21:22;23.63;;;18.87;;
18716;SDS011;9487;50.892;6.906;2022-11-20T14:23:52;24.93;;;18.47;;
18716;SDS011;9487;50.892;6.906;2022-11-20T14:26:21;24.17;;;18.20;;
18716;SDS011;9487;50.892;6.906;2022-11-20T14:28:48;24.87;;;19.90;;
18716;SDS011;9487;50.892;6.906;2022-11-20T14:31:18;23.50;;;18.67;;
18716;SDS011;9487;50.892;6.906;2022-11-20T14:33:49;23.40;;;19.63;;
18716;SDS011;9487;50.892;6.906;2022-11-20T14:36:18;24.00;;;19.10;;
18716;SDS011;9487;50.892;6.906;2022-11-20T14:38:48;25.53;;;20.47;;
18716;SDS011;9487;50.892;6.906;2022-11-20T14:41:16;24.27;;;18.17;;
18716;SDS011;9487;50.892;6.906;2022-11-20T14:43:47;22.60;;;18.00;;
18716;SDS011;9487;50.892;6.906;2022-11-20T14:46:17;23.87;;;18.57;;
18716;SDS011;9487;50.892;6.906;2022-11-20T14:48:45;25.60;;;17.93;;
18716;SDS011;9487;50.892;6.906;2022-11-20T14:51:23;25.83;;;19.50;;
18716;SDS011;9487;50.892;6.906;2022-11-20T14:53:53;22.97;;;18.30;;
18716;SDS011;9487;50.892;6.906;2022-11-20T14:56:21;25.47;;;20.50;;